createdAt,value
2022-10-09T00:03:27.824Z,23.244147157190636
2022-10-09T00:12:06.943Z,23.06020066889632
2022-10-09T00:18:34.256Z,21.732441471571907
2022-10-09T00:27:30.112Z,22.25752508361204
2022-10-09T00:33:56.290Z,21.745819397993312
2022-10-09T00:40:23.854Z,27.622073578595316
2022-10-09T00:46:51.004Z,19.846153846153847
2022-10-09T00:53:18.006Z,24.50836120401338
2022-10-09T00:59:45.089Z,24.40468227424749
2022-10-09T01:11:59.597Z,24.40802675585284
2022-10-09T01:18:26.913Z,26.448160535117058
2022-10-09T01:26:06.828Z,23.441471571906355
2022-10-09T01:32:33.663Z,27.468227424749163
2022-10-09T01:40:13.286Z,28.140468227424748
2022-10-09T01:50:10.270Z,26.612040133779264
2022-10-09T01:59:21.677Z,23.220735785953178
2022-10-09T02:05:48.820Z,26.849498327759196
2022-10-09T02:12:15.913Z,24.632107023411372
2022-10-09T02:18:42.279Z,24.11371237458194
2022-10-09T02:25:26.124Z,32.74916387959866
2022-10-09T02:34:41.487Z,28.37123745819398
2022-10-09T02:41:08.310Z,26.337792642140467
2022-10-09T02:47:37.051Z,29.47826086956522
2022-10-09T02:55:33.314Z,34.52173913043478
2022-10-09T03:09:05.501Z,32.561872909699
2022-10-09T03:18:49.775Z,38.47826086956522
2022-10-09T03:25:22.350Z,34.86622073578595
2022-10-09T03:31:52.814Z,36.324414715719065
2022-10-09T03:38:20.287Z,39.585284280936456
2022-10-09T03:51:32.045Z,36.57190635451505
2022-10-09T04:02:30.961Z,39.96655518394649
2022-10-09T04:08:58.450Z,42.468227424749166
2022-10-09T04:15:25.782Z,36.869565217391305
2022-10-09T04:21:54.845Z,51.33779264214047
2022-10-09T04:28:29.113Z,51.72909698996656
2022-10-09T04:34:56.168Z,61.180602006688964
2022-10-09T04:41:25.124Z,52.31103678929766
2022-10-09T04:47:52.349Z,52.608695652173914
2022-10-09T05:08:39.736Z,53.197324414715716
2022-10-09T05:15:06.905Z,53.37792642140468
2022-10-09T05:21:35.301Z,66.58528428093645
2022-10-09T05:28:10.860Z,67.0
2022-10-09T05:34:39.019Z,66.62207357859532
2022-10-09T05:41:06.592Z,58.75585284280937
2022-10-09T05:47:34.630Z,59.32107023411371
2022-10-09T05:54:01.746Z,57.896321070234116
2022-10-09T06:00:29.541Z,62.36789297658863
2022-10-09T06:06:57.236Z,63.04013377926422
2022-10-09T06:13:24.774Z,61.68227424749164
2022-10-09T06:19:52.209Z,68.94983277591973
2022-10-09T06:26:30.587Z,61.65551839464883
2022-10-09T06:37:36.364Z,66.20401337792642
2022-10-09T06:47:43.127Z,67.24414715719064
2022-10-09T06:54:10.713Z,70.1438127090301
2022-10-09T07:21:47.189Z,72.0
2022-10-09T07:28:36.372Z,75.66220735785953
2022-10-09T07:36:16.655Z,75.84615384615384
2022-10-09T07:43:10.598Z,78.77591973244147
2022-10-09T07:50:39.269Z,74.98327759197325
2022-10-09T08:01:26.249Z,69.84949832775919
2022-10-09T08:08:50.136Z,76.56187290969899
2022-10-09T08:16:15.165Z,71.15050167224081
2022-10-09T08:23:31.085Z,72.0200668896321
2022-10-09T08:30:19.516Z,72.97324414715719
2022-10-09T08:38:45.986Z,74.21070234113712
2022-10-09T08:45:18.422Z,72.95317725752508
2022-10-09T08:51:49.065Z,63.71571906354515
2022-10-09T08:58:17.818Z,58.896321070234116
2022-10-09T09:04:48.240Z,53.51839464882943
2022-10-09T09:11:21.804Z,53.39799331103679
2022-10-09T09:17:49.577Z,52.14046822742475
2022-10-09T09:30:27.936Z,38.591973244147155
2022-10-09T09:37:11.531Z,41.07357859531773
2022-10-09T09:43:44.772Z,33.364548494983275
2022-10-09T09:50:42.418Z,21.618729096989966
2022-10-09T09:57:37.932Z,19.110367892976587
2022-10-09T10:10:37.615Z,15.678929765886288
2022-10-09T10:17:50.292Z,21.120401337792643
2022-10-09T10:25:25.810Z,16.63545150501672
2022-10-09T10:38:18.752Z,14.622073578595318
2022-10-09T10:44:47.229Z,12.923076923076923
2022-10-09T10:51:14.509Z,7.829431438127091
2022-10-09T10:57:43.341Z,13.989966555183946
2022-10-09T11:04:11.670Z,15.782608695652174
2022-10-09T11:10:40.561Z,9.48494983277592
2022-10-09T11:26:21.341Z,11.424749163879598
2022-10-09T11:32:48.430Z,13.505016722408026
2022-10-09T11:42:28.757Z,12.48494983277592
2022-10-09T11:52:36.947Z,15.715719063545151
2022-10-09T11:59:04.044Z,12.023411371237458
2022-10-09T12:05:34.779Z,9.966555183946488
2022-10-09T12:13:04.767Z,11.638795986622073
2022-10-09T12:26:09.001Z,7.7792642140468224
2022-10-09T12:32:41.671Z,10.37123745819398
2022-10-09T12:39:13.079Z,11.19732441471572
2022-10-09T12:45:51.889Z,16.304347826086957
2022-10-09T12:52:27.642Z,10.357859531772576
2022-10-09T13:04:39.307Z,9.518394648829432
2022-10-09T13:11:13.852Z,12.351170568561873
2022-10-09T13:17:44.180Z,8.03010033444816
2022-10-09T13:24:12.705Z,9.384615384615385
2022-10-09T13:30:43.856Z,7.173913043478261
2022-10-09T13:37:13.934Z,7.508361204013378
2022-10-09T13:43:43.854Z,7.538461538461538
2022-10-09T13:57:55.595Z,6.635451505016722
2022-10-09T14:04:23.618Z,8.702341137123746
2022-10-09T14:10:51.062Z,5.745819397993311
2022-10-09T14:17:17.748Z,9.989966555183946
2022-10-09T14:23:44.761Z,7.9799331103678925
2022-10-09T14:40:45.231Z,11.68561872909699
2022-10-09T14:47:15.470Z,5.698996655518394
2022-10-09T14:53:43.009Z,6.722408026755853
2022-10-09T15:00:10.823Z,5.016722408026756
2022-10-09T15:06:38.454Z,5.160535117056856
2022-10-09T15:13:06.250Z,8.74247491638796
2022-10-09T15:19:34.395Z,5.187290969899665
2022-10-09T15:26:03.248Z,5.364548494983278
2022-10-09T15:32:32.879Z,6.976588628762542
2022-10-09T15:40:44.481Z,8.20401337792642
2022-10-09T15:47:16.633Z,12.080267558528428
2022-10-09T15:53:45.497Z,11.454849498327759
2022-10-09T16:00:13.830Z,10.431438127090301
2022-10-09T16:10:24.628Z,10.120401337792643
2022-10-09T16:27:30.989Z,8.177257525083611
2022-10-09T16:33:59.886Z,11.672240802675585
2022-10-09T16:40:49.838Z,10.521739130434783
2022-10-09T16:47:30.445Z,11.94314381270903
2022-10-09T16:54:00.088Z,11.297658862876254
2022-10-09T17:04:52.163Z,63.90969899665552
2022-10-09T17:11:22.236Z,19.849498327759196
2022-10-09T17:17:52.600Z,17.73913043478261
2022-10-09T17:31:05.372Z,21.989966555183948
2022-10-09T17:37:35.318Z,34.080267558528426
2022-10-09T17:44:04.044Z,32.88963210702341
2022-10-09T17:50:33.201Z,31.354515050167223
2022-10-09T17:57:02.601Z,26.812709030100333
2022-10-09T18:03:35.081Z,27.016722408026755
2022-10-09T18:10:07.588Z,22.110367892976587
2022-10-09T18:16:55.503Z,25.581939799331103
2022-10-09T18:25:44.429Z,36.47157190635451
2022-10-09T18:35:33.513Z,32.147157190635454
2022-10-09T18:42:06.791Z,30.618729096989966
2022-10-09T19:00:04.513Z,20.896321070234112
2022-10-09T19:07:44.960Z,23.795986622073578
2022-10-09T19:14:14.506Z,30.264214046822744
2022-10-09T19:20:44.449Z,25.80267558528428
2022-10-09T19:27:16.121Z,23.565217391304348
2022-10-09T19:33:46.555Z,30.812709030100333
2022-10-09T19:40:16.684Z,20.926421404682273
2022-10-09T19:46:51.440Z,26.2809364548495
2022-10-09T19:53:27.632Z,19.37123745819398
2022-10-09T20:01:38.504Z,17.785953177257525
2022-10-09T20:08:58.351Z,17.531772575250837
2022-10-09T20:16:06.102Z,19.68561872909699
2022-10-09T20:22:56.107Z,18.568561872909697
2022-10-09T20:29:30.215Z,28.444816053511705
2022-10-09T20:36:13.638Z,31.327759197324415
2022-10-09T20:48:39.136Z,63.8494983277592
2022-10-09T20:55:05.729Z,24.816053511705686
2022-10-09T21:01:32.439Z,23.150501672240804
2022-10-09T21:07:59.288Z,23.909698996655518
2022-10-09T21:14:25.274Z,22.411371237458194
2022-10-09T21:20:52.170Z,25.006688963210703
2022-10-09T21:30:18.587Z,22.665551839464882
2022-10-09T21:37:09.005Z,25.411371237458194
2022-10-09T21:46:46.535Z,31.361204013377925
2022-10-09T21:53:13.119Z,24.555183946488295
2022-10-09T22:05:55.801Z,22.525083612040135
2022-10-09T22:18:30.714Z,20.13377926421405
2022-10-09T22:25:15.374Z,23.39799331103679
2022-10-09T22:31:42.208Z,20.4247491638796
2022-10-09T22:38:09.249Z,20.421404682274247
2022-10-09T22:49:43.495Z,19.68561872909699
2022-10-09T22:58:27.153Z,17.25752508361204
2022-10-09T23:04:54.888Z,20.63545150501672
2022-10-09T23:20:03.713Z,14.180602006688963
2022-10-09T23:28:57.829Z,19.836120401337794
2022-10-09T23:35:24.177Z,15.26086956521739
2022-10-09T23:41:50.870Z,12.444816053511706
2022-10-09T23:51:26.693Z,18.107023411371237
2022-10-09T23:59:26.297Z,17.023411371237458
